Time;durP1;ratioP1;P1;durP2;ratioP2;P2;SDS_P1;SDS_P2;PMS_P1;PMS_P2;Temp;Humidity;BMP_temperature;BMP_pressure;BME280_temperature;BME280_humidity;BME280_pressure;Samples;Min_cycle;Max_cycle;Signal;HPM_P1;HPM_P2
2021/03/29 00:00:02;;;;;;;3.350001;2.5;;;;;;;4.28;45.47656;96534.44;;;;
2021/03/29 00:01:06;;;;;;;3.350001;2.5;;;;;;;4.28;45.47656;96534.44;;;;
2021/03/29 00:02:06;;;;;;;3.350001;2.5;;;;;;;4.28;45.47656;96534.44;;;;
2021/03/29 00:03:07;;;;;;;3.350001;2.5;;;;;;;4.28;45.47656;96534.44;;;;
2021/03/29 00:04:08;;;;;;;3.350001;2.5;;;;;;;4.28;45.47656;96534.44;;;;
2021/03/29 00:05:08;;;;;;;3.350001;2.5;;;;;;;4.28;45.47656;96534.44;;;;
2021/03/29 00:06:10;;;;;;;3.350001;2.5;;;;;;;4.28;45.47656;96534.44;;;;
2021/03/29 00:07:11;;;;;;;3.350001;2.5;;;;;;;4.28;45.47656;96534.44;;;;
2021/03/29 00:08:12;;;;;;;3.350001;2.5;;;;;;;4.28;45.47656;96534.44;;;;
2021/03/29 00:09:17;;;;;;;3.75;2.55;;;;;;;4.16;45.63477;96528.16;;;;
2021/03/29 00:10:18;;;;;;;3.75;2.55;;;;;;;4.16;45.63477;96528.16;;;;
2021/03/29 00:11:20;;;;;;;3.75;2.55;;;;;;;4.16;45.63477;96528.16;;;;
2021/03/29 00:12:23;;;;;;;3.75;2.55;;;;;;;4.16;45.63477;96528.16;;;;
2021/03/29 00:13:24;;;;;;;3.75;2.55;;;;;;;4.16;45.63477;96528.16;;;;
2021/03/29 00:14:29;;;;;;;3.75;2.55;;;;;;;4.16;45.63477;96528.16;;;;
2021/03/29 00:15:31;;;;;;;3.75;2.55;;;;;;;4.16;45.63477;96528.16;;;;
2021/03/29 00:16:36;;;;;;;3.75;2.55;;;;;;;4.16;45.63477;96528.16;;;;
2021/03/29 00:17:38;;;;;;;3.75;2.55;;;;;;;4.16;45.63477;96528.16;;;;
2021/03/29 00:18:39;;;;;;;3.75;2.55;;;;;;;4.16;45.63477;96528.16;;;;
2021/03/29 00:19:40;;;;;;;3.6;2.7;;;;;;;4.02;45.85352;96527.06;;;;
2021/03/29 00:20:42;;;;;;;3.6;2.7;;;;;;;4.02;45.85352;96527.06;;;;
2021/03/29 00:21:48;;;;;;;3.6;2.7;;;;;;;4.02;45.85352;96527.06;;;;
2021/03/29 00:22:49;;;;;;;3.6;2.7;;;;;;;4.02;45.85352;96527.06;;;;
2021/03/29 00:23:51;;;;;;;3.6;2.7;;;;;;;4.02;45.85352;96527.06;;;;
2021/03/29 00:24:51;;;;;;;3.6;2.7;;;;;;;4.02;45.85352;96527.06;;;;
2021/03/29 00:25:52;;;;;;;3.6;2.7;;;;;;;4.02;45.85352;96527.06;;;;
2021/03/29 00:26:53;;;;;;;3.6;2.7;;;;;;;4.02;45.85352;96527.06;;;;
2021/03/29 00:27:54;;;;;;;3.6;2.7;;;;;;;4.02;45.85352;96527.06;;;;
2021/03/29 00:28:55;;;;;;;3.6;2.7;;;;;;;4.02;45.85352;96527.06;;;;
2021/03/29 00:29:56;;;;;;;3.6;2.7;;;;;;;4.02;45.85352;96527.06;;;;
2021/03/29 00:30:56;;;;;;;4.1;2.8;;;;;;;3.87;46.01758;96532.62;;;;
2021/03/29 00:31:57;;;;;;;4.1;2.8;;;;;;;3.87;46.01758;96532.62;;;;
2021/03/29 00:32:58;;;;;;;4.1;2.8;;;;;;;3.87;46.01758;96532.62;;;;
2021/03/29 00:34:00;;;;;;;4.1;2.8;;;;;;;3.87;46.01758;96532.62;;;;
2021/03/29 00:35:03;;;;;;;4.1;2.8;;;;;;;3.87;46.01758;96532.62;;;;
2021/03/29 00:36:05;;;;;;;4.1;2.8;;;;;;;3.87;46.01758;96532.62;;;;
2021/03/29 00:37:08;;;;;;;4.1;2.8;;;;;;;3.87;46.01758;96532.62;;;;
2021/03/29 00:38:09;;;;;;;4.1;2.8;;;;;;;3.87;46.01758;96532.62;;;;
2021/03/29 00:39:11;;;;;;;4.1;2.8;;;;;;;3.87;46.01758;96532.62;;;;
2021/03/29 00:40:14;;;;;;;4.1;2.8;;;;;;;3.87;46.01758;96532.62;;;;
2021/03/29 00:41:15;;;;;;;3.45;2.75;;;;;;;3.73;46.19336;96527.51;;;;
2021/03/29 00:42:16;;;;;;;3.45;2.75;;;;;;;3.73;46.19336;96527.51;;;;
2021/03/29 00:43:18;;;;;;;3.45;2.75;;;;;;;3.73;46.19336;96527.51;;;;
2021/03/29 00:44:22;;;;;;;3.45;2.75;;;;;;;3.73;46.19336;96527.51;;;;
2021/03/29 00:45:23;;;;;;;3.45;2.75;;;;;;;3.73;46.19336;96527.51;;;;
2021/03/29 00:46:25;;;;;;;3.45;2.75;;;;;;;3.73;46.19336;96527.51;;;;
2021/03/29 00:47:27;;;;;;;3.45;2.75;;;;;;;3.73;46.19336;96527.51;;;;
2021/03/29 00:48:28;;;;;;;3.45;2.75;;;;;;;3.73;46.19336;96527.51;;;;
2021/03/29 00:49:32;;;;;;;3.45;2.75;;;;;;;3.73;46.19336;96527.51;;;;
2021/03/29 00:50:33;;;;;;;3.45;2.75;;;;;;;3.73;46.19336;96527.51;;;;
2021/03/29 00:51:40;;;;;;;4.8;2.9;;;;;;;3.52;46.52148;96529.8;;;;
2021/03/29 00:52:41;;;;;;;4.8;2.9;;;;;;;3.52;46.52148;96529.8;;;;
2021/03/29 00:53:43;;;;;;;4.8;2.9;;;;;;;3.52;46.52148;96529.8;;;;
2021/03/29 00:54:47;;;;;;;4.8;2.9;;;;;;;3.52;46.52148;96529.8;;;;
2021/03/29 00:55:48;;;;;;;4.8;2.9;;;;;;;3.52;46.52148;96529.8;;;;
2021/03/29 00:56:50;;;;;;;4.8;2.9;;;;;;;3.52;46.52148;96529.8;;;;
2021/03/29 00:57:51;;;;;;;4.8;2.9;;;;;;;3.52;46.52148;96529.8;;;;
2021/03/29 00:58:53;;;;;;;4.8;2.9;;;;;;;3.52;46.52148;96529.8;;;;
2021/03/29 00:59:57;;;;;;;4.8;2.9;;;;;;;3.52;46.52148;96529.8;;;;
2021/03/29 01:00:58;;;;;;;4.8;2.9;;;;;;;3.52;46.52148;96529.8;;;;
2021/03/29 01:02:03;;;;;;;4.8;2.9;;;;;;;3.52;46.52148;96529.8;;;;
2021/03/29 01:03:05;;;;;;;5;2.6;;;;;;;3.32;46.75488;96539.06;;;;
2021/03/29 01:04:10;;;;;;;5;2.6;;;;;;;3.32;46.75488;96539.06;;;;
2021/03/29 01:05:12;;;;;;;5;2.6;;;;;;;3.32;46.75488;96539.06;;;;
2021/03/29 01:06:16;;;;;;;5;2.6;;;;;;;3.32;46.75488;96539.06;;;;
2021/03/29 01:07:19;;;;;;;5;2.6;;;;;;;3.32;46.75488;96539.06;;;;
2021/03/29 01:08:20;;;;;;;5;2.6;;;;;;;3.32;46.75488;96539.06;;;;
2021/03/29 01:09:22;;;;;;;5;2.6;;;;;;;3.32;46.75488;96539.06;;;;
2021/03/29 01:10:25;;;;;;;5;2.6;;;;;;;3.32;46.75488;96539.06;;;;
2021/03/29 01:11:25;;;;;;;5;2.6;;;;;;;3.32;46.75488;96539.06;;;;
2021/03/29 01:12:28;;;;;;;5;2.6;;;;;;;3.32;46.75488;96539.06;;;;
2021/03/29 01:13:28;;;;;;;4;2.95;;;;;;;3.13;46.94629;96532.12;;;;
2021/03/29 01:14:30;;;;;;;4;2.95;;;;;;;3.13;46.94629;96532.12;;;;
2021/03/29 01:15:35;;;;;;;4;2.95;;;;;;;3.13;46.94629;96532.12;;;;
2021/03/29 01:16:37;;;;;;;4;2.95;;;;;;;3.13;46.94629;96532.12;;;;
2021/03/29 01:17:41;;;;;;;4;2.95;;;;;;;3.13;46.94629;96532.12;;;;
2021/03/29 01:18:45;;;;;;;4;2.95;;;;;;;3.13;46.94629;96532.12;;;;
2021/03/29 01:19:49;;;;;;;4;2.95;;;;;;;3.13;46.94629;96532.12;;;;
2021/03/29 01:21:05;;;;;;;4;2.95;;;;;;;3.13;46.94629;96532.12;;;;
2021/03/29 01:22:20;;;;;;;4;2.95;;;;;;;3.13;46.94629;96532.12;;;;
2021/03/29 01:23:24;;;;;;;4;2.95;;;;;;;3.13;46.94629;96532.12;;;;
2021/03/29 01:24:26;;;;;;;4.15;2.75;;;;;;;2.95;47.11719;96536.7;;;;
2021/03/29 01:25:35;;;;;;;4.15;2.75;;;;;;;2.95;47.11719;96536.7;;;;
2021/03/29 01:26:46;;;;;;;4.15;2.75;;;;;;;2.95;47.11719;96536.7;;;;
2021/03/29 01:27:49;;;;;;;4.15;2.75;;;;;;;2.95;47.11719;96536.7;;;;
2021/03/29 01:28:54;;;;;;;4.15;2.75;;;;;;;2.95;47.11719;96536.7;;;;
2021/03/29 01:29:55;;;;;;;4.15;2.75;;;;;;;2.95;47.11719;96536.7;;;;
2021/03/29 01:30:57;;;;;;;4.15;2.75;;;;;;;2.95;47.11719;96536.7;;;;
2021/03/29 01:31:59;;;;;;;4.15;2.75;;;;;;;2.95;47.11719;96536.7;;;;
2021/03/29 01:33:02;;;;;;;4.15;2.75;;;;;;;2.95;47.11719;96536.7;;;;
2021/03/29 01:34:04;;;;;;;4.15;2.75;;;;;;;2.95;47.11719;96536.7;;;;
2021/03/29 01:35:07;;;;;;;5.55;3.299999;;;;;;;2.79;47.34277;96539.28;;;;
2021/03/29 01:36:11;;;;;;;5.55;3.299999;;;;;;;2.79;47.34277;96539.28;;;;
2021/03/29 01:37:12;;;;;;;5.55;3.299999;;;;;;;2.79;47.34277;96539.28;;;;
2021/03/29 01:38:13;;;;;;;5.55;3.299999;;;;;;;2.79;47.34277;96539.28;;;;
2021/03/29 01:39:15;;;;;;;5.55;3.299999;;;;;;;2.79;47.34277;96539.28;;;;
2021/03/29 01:40:16;;;;;;;5.55;3.299999;;;;;;;2.79;47.34277;96539.28;;;;
2021/03/29 01:41:19;;;;;;;5.55;3.299999;;;;;;;2.79;47.34277;96539.28;;;;
2021/03/29 01:42:20;;;;;;;5.55;3.299999;;;;;;;2.79;47.34277;96539.28;;;;
2021/03/29 01:43:22;;;;;;;5.55;3.299999;;;;;;;2.79;47.34277;96539.28;;;;
2021/03/29 01:44:24;;;;;;;5.55;3.299999;;;;;;;2.79;47.34277;96539.28;;;;
2021/03/29 01:45:26;;;;;;;3.4;2.55;;;;;;;2.68;47.90234;96543.05;;;;
2021/03/29 01:46:26;;;;;;;3.4;2.55;;;;;;;2.68;47.90234;96543.05;;;;
2021/03/29 01:47:28;;;;;;;3.4;2.55;;;;;;;2.68;47.90234;96543.05;;;;
2021/03/29 01:48:30;;;;;;;3.4;2.55;;;;;;;2.68;47.90234;96543.05;;;;
2021/03/29 01:49:30;;;;;;;3.4;2.55;;;;;;;2.68;47.90234;96543.05;;;;
2021/03/29 01:50:32;;;;;;;3.4;2.55;;;;;;;2.68;47.90234;96543.05;;;;
2021/03/29 01:51:36;;;;;;;3.4;2.55;;;;;;;2.68;47.90234;96543.05;;;;
2021/03/29 01:52:37;;;;;;;3.4;2.55;;;;;;;2.68;47.90234;96543.05;;;;
2021/03/29 01:53:38;;;;;;;3.4;2.55;;;;;;;2.68;47.90234;96543.05;;;;
2021/03/29 01:54:40;;;;;;;3.4;2.55;;;;;;;2.68;47.90234;96543.05;;;;
2021/03/29 01:55:42;;;;;;;3.95;2.6;;;;;;;2.75;48.34375;96541.96;;;;
2021/03/29 01:56:43;;;;;;;3.95;2.6;;;;;;;2.75;48.34375;96541.96;;;;
2021/03/29 01:57:44;;;;;;;3.95;2.6;;;;;;;2.75;48.34375;96541.96;;;;
2021/03/29 01:58:45;;;;;;;3.95;2.6;;;;;;;2.75;48.34375;96541.96;;;;
2021/03/29 01:59:45;;;;;;;3.95;2.6;;;;;;;2.75;48.34375;96541.96;;;;
2021/03/29 02:00:46;;;;;;;3.95;2.6;;;;;;;2.75;48.34375;96541.96;;;;
2021/03/29 02:01:50;;;;;;;3.95;2.6;;;;;;;2.75;48.34375;96541.96;;;;
2021/03/29 02:02:51;;;;;;;3.95;2.6;;;;;;;2.75;48.34375;96541.96;;;;
2021/03/29 02:03:53;;;;;;;3.95;2.6;;;;;;;2.75;48.34375;96541.96;;;;
2021/03/29 02:04:54;;;;;;;3.95;2.6;;;;;;;2.75;48.34375;96541.96;;;;
2021/03/29 02:05:55;;;;;;;3.95;2.6;;;;;;;2.75;48.34375;96541.96;;;;
2021/03/29 02:06:56;;;;;;;2.9;2.5;;;;;;;2.7;47.94727;96535.41;;;;
2021/03/29 02:07:58;;;;;;;2.9;2.5;;;;;;;2.7;47.94727;96535.41;;;;
2021/03/29 02:09:01;;;;;;;2.9;2.5;;;;;;;2.7;47.94727;96535.41;;;;
2021/03/29 02:10:04;;;;;;;2.9;2.5;;;;;;;2.7;47.94727;96535.41;;;;
2021/03/29 02:11:09;;;;;;;2.9;2.5;;;;;;;2.7;47.94727;96535.41;;;;
2021/03/29 02:12:11;;;;;;;2.9;2.5;;;;;;;2.7;47.94727;96535.41;;;;
2021/03/29 02:13:13;;;;;;;2.9;2.5;;;;;;;2.7;47.94727;96535.41;;;;
2021/03/29 02:14:15;;;;;;;2.9;2.5;;;;;;;2.7;47.94727;96535.41;;;;
2021/03/29 02:15:18;;;;;;;2.9;2.5;;;;;;;2.7;47.94727;96535.41;;;;
2021/03/29 02:16:24;;;;;;;2.9;2.5;;;;;;;2.7;47.94727;96535.41;;;;
2021/03/29 02:17:28;;;;;;;4.849999;2.8;;;;;;;2.52;48.10645;96536.38;;;;
2021/03/29 02:18:29;;;;;;;4.849999;2.8;;;;;;;2.52;48.10645;96536.38;;;;
2021/03/29 02:19:35;;;;;;;4.849999;2.8;;;;;;;2.52;48.10645;96536.38;;;;
2021/03/29 02:20:37;;;;;;;4.849999;2.8;;;;;;;2.52;48.10645;96536.38;;;;
2021/03/29 02:21:39;;;;;;;4.849999;2.8;;;;;;;2.52;48.10645;96536.38;;;;
2021/03/29 02:22:41;;;;;;;4.849999;2.8;;;;;;;2.52;48.10645;96536.38;;;;
2021/03/29 02:23:43;;;;;;;4.849999;2.8;;;;;;;2.52;48.10645;96536.38;;;;
2021/03/29 02:24:47;;;;;;;4.849999;2.8;;;;;;;2.52;48.10645;96536.38;;;;
2021/03/29 02:25:48;;;;;;;4.849999;2.8;;;;;;;2.52;48.10645;96536.38;;;;
2021/03/29 02:26:49;;;;;;;4.849999;2.8;;;;;;;2.52;48.10645;96536.38;;;;
2021/03/29 02:27:50;;;;;;;4.05;3.15;;;;;;;2.41;48.34766;96544.62;;;;
2021/03/29 02:28:51;;;;;;;4.05;3.15;;;;;;;2.41;48.34766;96544.62;;;;
2021/03/29 02:29:53;;;;;;;4.05;3.15;;;;;;;2.41;48.34766;96544.62;;;;
2021/03/29 02:30:54;;;;;;;4.05;3.15;;;;;;;2.41;48.34766;96544.62;;;;
2021/03/29 02:31:56;;;;;;;4.05;3.15;;;;;;;2.41;48.34766;96544.62;;;;
2021/03/29 02:32:57;;;;;;;4.05;3.15;;;;;;;2.41;48.34766;96544.62;;;;
2021/03/29 02:33:59;;;;;;;4.05;3.15;;;;;;;2.41;48.34766;96544.62;;;;
2021/03/29 02:35:02;;;;;;;4.05;3.15;;;;;;;2.41;48.34766;96544.62;;;;
2021/03/29 02:36:04;;;;;;;4.05;3.15;;;;;;;2.41;48.34766;96544.62;;;;
2021/03/29 02:37:06;;;;;;;4.05;3.15;;;;;;;2.41;48.34766;96544.62;;;;
2021/03/29 02:38:07;;;;;;;4.05;3.15;;;;;;;2.41;48.34766;96544.62;;;;
2021/03/29 02:39:11;;;;;;;4.199999;2.85;;;;;;;2.3;48.54785;96541.71;;;;
2021/03/29 02:40:12;;;;;;;4.199999;2.85;;;;;;;2.3;48.54785;96541.71;;;;
2021/03/29 02:41:14;;;;;;;4.199999;2.85;;;;;;;2.3;48.54785;96541.71;;;;
2021/03/29 02:42:15;;;;;;;4.199999;2.85;;;;;;;2.3;48.54785;96541.71;;;;
2021/03/29 02:43:15;;;;;;;4.199999;2.85;;;;;;;2.3;48.54785;96541.71;;;;
2021/03/29 02:44:17;;;;;;;4.199999;2.85;;;;;;;2.3;48.54785;96541.71;;;;
2021/03/29 02:45:18;;;;;;;4.199999;2.85;;;;;;;2.3;48.54785;96541.71;;;;
2021/03/29 02:46:22;;;;;;;4.199999;2.85;;;;;;;2.3;48.54785;96541.71;;;;
2021/03/29 02:47:24;;;;;;;4.199999;2.85;;;;;;;2.3;48.54785;96541.71;;;;
2021/03/29 02:48:25;;;;;;;4.199999;2.85;;;;;;;2.3;48.54785;96541.71;;;;
2021/03/29 02:49:28;;;;;;;4.6;2.7;;;;;;;2.18;48.62891;96536.69;;;;
2021/03/29 02:50:30;;;;;;;4.6;2.7;;;;;;;2.18;48.62891;96536.69;;;;
2021/03/29 02:51:33;;;;;;;4.6;2.7;;;;;;;2.18;48.62891;96536.69;;;;
2021/03/29 02:52:35;;;;;;;4.6;2.7;;;;;;;2.18;48.62891;96536.69;;;;
2021/03/29 02:53:37;;;;;;;4.6;2.7;;;;;;;2.18;48.62891;96536.69;;;;
2021/03/29 02:54:39;;;;;;;4.6;2.7;;;;;;;2.18;48.62891;96536.69;;;;
2021/03/29 02:55:40;;;;;;;4.6;2.7;;;;;;;2.18;48.62891;96536.69;;;;
2021/03/29 02:56:43;;;;;;;4.6;2.7;;;;;;;2.18;48.62891;96536.69;;;;
2021/03/29 02:57:45;;;;;;;4.6;2.7;;;;;;;2.18;48.62891;96536.69;;;;
2021/03/29 02:58:48;;;;;;;4.6;2.7;;;;;;;2.18;48.62891;96536.69;;;;
2021/03/29 02:59:52;;;;;;;6;2.85;;;;;;;2.07;48.80664;96539.15;;;;
2021/03/29 03:00:54;;;;;;;6;2.85;;;;;;;2.07;48.80664;96539.15;;;;
2021/03/29 03:01:55;;;;;;;6;2.85;;;;;;;2.07;48.80664;96539.15;;;;
2021/03/29 03:02:57;;;;;;;6;2.85;;;;;;;2.07;48.80664;96539.15;;;;
2021/03/29 03:04:00;;;;;;;6;2.85;;;;;;;2.07;48.80664;96539.15;;;;
2021/03/29 03:05:00;;;;;;;6;2.85;;;;;;;2.07;48.80664;96539.15;;;;
2021/03/29 03:06:04;;;;;;;6;2.85;;;;;;;2.07;48.80664;96539.15;;;;
2021/03/29 03:07:06;;;;;;;6;2.85;;;;;;;2.07;48.80664;96539.15;;;;
2021/03/29 03:08:07;;;;;;;6;2.85;;;;;;;2.07;48.80664;96539.15;;;;
2021/03/29 03:09:08;;;;;;;6;2.85;;;;;;;2.07;48.80664;96539.15;;;;
2021/03/29 03:10:10;;;;;;;6;2.85;;;;;;;2.07;48.80664;96539.15;;;;
2021/03/29 03:11:14;;;;;;;3.15;2.75;;;;;;;1.98;48.94336;96541.02;;;;
2021/03/29 03:12:15;;;;;;;3.15;2.75;;;;;;;1.98;48.94336;96541.02;;;;
2021/03/29 03:13:16;;;;;;;3.15;2.75;;;;;;;1.98;48.94336;96541.02;;;;
2021/03/29 03:14:17;;;;;;;3.15;2.75;;;;;;;1.98;48.94336;96541.02;;;;
2021/03/29 03:15:18;;;;;;;3.15;2.75;;;;;;;1.98;48.94336;96541.02;;;;
2021/03/29 03:16:22;;;;;;;3.15;2.75;;;;;;;1.98;48.94336;96541.02;;;;
2021/03/29 03:17:23;;;;;;;3.15;2.75;;;;;;;1.98;48.94336;96541.02;;;;
2021/03/29 03:18:24;;;;;;;3.15;2.75;;;;;;;1.98;48.94336;96541.02;;;;
2021/03/29 03:19:24;;;;;;;3.15;2.75;;;;;;;1.98;48.94336;96541.02;;;;
2021/03/29 03:20:25;;;;;;;3.15;2.75;;;;;;;1.98;48.94336;96541.02;;;;
2021/03/29 03:21:27;;;;;;;4.900001;2.85;;;;;;;1.92;49.16016;96552.2;;;;
2021/03/29 03:22:32;;;;;;;4.900001;2.85;;;;;;;1.92;49.16016;96552.2;;;;
2021/03/29 03:23:32;;;;;;;4.900001;2.85;;;;;;;1.92;49.16016;96552.2;;;;
2021/03/29 03:24:33;;;;;;;4.900001;2.85;;;;;;;1.92;49.16016;96552.2;;;;
2021/03/29 03:25:34;;;;;;;4.900001;2.85;;;;;;;1.92;49.16016;96552.2;;;;
2021/03/29 03:26:37;;;;;;;4.900001;2.85;;;;;;;1.92;49.16016;96552.2;;;;
2021/03/29 03:27:38;;;;;;;4.900001;2.85;;;;;;;1.92;49.16016;96552.2;;;;
2021/03/29 03:28:38;;;;;;;4.900001;2.85;;;;;;;1.92;49.16016;96552.2;;;;
2021/03/29 03:29:39;;;;;;;4.900001;2.85;;;;;;;1.92;49.16016;96552.2;;;;
2021/03/29 03:30:40;;;;;;;4.900001;2.85;;;;;;;1.92;49.16016;96552.2;;;;
2021/03/29 03:31:43;;;;;;;4.149999;2.55;;;;;;;1.8;49.34668;96555.63;;;;
2021/03/29 03:32:44;;;;;;;4.149999;2.55;;;;;;;1.8;49.34668;96555.63;;;;
2021/03/29 03:33:45;;;;;;;4.149999;2.55;;;;;;;1.8;49.34668;96555.63;;;;
2021/03/29 03:34:46;;;;;;;4.149999;2.55;;;;;;;1.8;49.34668;96555.63;;;;
2021/03/29 03:35:47;;;;;;;4.149999;2.55;;;;;;;1.8;49.34668;96555.63;;;;
2021/03/29 03:36:49;;;;;;;4.149999;2.55;;;;;;;1.8;49.34668;96555.63;;;;
2021/03/29 03:37:50;;;;;;;4.149999;2.55;;;;;;;1.8;49.34668;96555.63;;;;
2021/03/29 03:38:54;;;;;;;4.149999;2.55;;;;;;;1.8;49.34668;96555.63;;;;
2021/03/29 03:39:55;;;;;;;4.149999;2.55;;;;;;;1.8;49.34668;96555.63;;;;
2021/03/29 03:40:56;;;;;;;4.149999;2.55;;;;;;;1.8;49.34668;96555.63;;;;
2021/03/29 03:41:59;;;;;;;4.149999;2.55;;;;;;;1.8;49.34668;96555.63;;;;
2021/03/29 03:43:00;;;;;;;4.15;2.5;;;;;;;1.72;49.54883;96555.56;;;;
2021/03/29 03:44:04;;;;;;;4.15;2.5;;;;;;;1.72;49.54883;96555.56;;;;
2021/03/29 03:45:06;;;;;;;4.15;2.5;;;;;;;1.72;49.54883;96555.56;;;;
2021/03/29 03:46:09;;;;;;;4.15;2.5;;;;;;;1.72;49.54883;96555.56;;;;
2021/03/29 03:47:12;;;;;;;4.15;2.5;;;;;;;1.72;49.54883;96555.56;;;;
2021/03/29 03:48:13;;;;;;;4.15;2.5;;;;;;;1.72;49.54883;96555.56;;;;
2021/03/29 03:49:16;;;;;;;4.15;2.5;;;;;;;1.72;49.54883;96555.56;;;;
2021/03/29 03:50:22;;;;;;;4.15;2.5;;;;;;;1.72;49.54883;96555.56;;;;
2021/03/29 03:51:24;;;;;;;4.15;2.5;;;;;;;1.72;49.54883;96555.56;;;;
2021/03/29 03:52:26;;;;;;;4.15;2.5;;;;;;;1.72;49.54883;96555.56;;;;
2021/03/29 03:53:27;;;;;;;4.3;2.75;;;;;;;1.68;49.60645;96561.25;;;;
2021/03/29 03:54:29;;;;;;;4.3;2.75;;;;;;;1.68;49.60645;96561.25;;;;
2021/03/29 03:55:31;;;;;;;4.3;2.75;;;;;;;1.68;49.60645;96561.25;;;;
2021/03/29 03:56:33;;;;;;;4.3;2.75;;;;;;;1.68;49.60645;96561.25;;;;
2021/03/29 03:57:35;;;;;;;4.3;2.75;;;;;;;1.68;49.60645;96561.25;;;;
2021/03/29 03:58:37;;;;;;;4.3;2.75;;;;;;;1.68;49.60645;96561.25;;;;
2021/03/29 03:59:39;;;;;;;4.3;2.75;;;;;;;1.68;49.60645;96561.25;;;;
2021/03/29 04:00:40;;;;;;;4.3;2.75;;;;;;;1.68;49.60645;96561.25;;;;
2021/03/29 04:01:42;;;;;;;4.3;2.75;;;;;;;1.68;49.60645;96561.25;;;;
2021/03/29 04:02:53;;;;;;;4.3;2.75;;;;;;;1.68;49.60645;96561.25;;;;
2021/03/29 04:03:54;;;;;;;4.45;2.65;;;;;;;1.64;49.68652;96567.86;;;;
2021/03/29 04:04:54;;;;;;;4.45;2.65;;;;;;;1.64;49.68652;96567.86;;;;
2021/03/29 04:05:55;;;;;;;4.45;2.65;;;;;;;1.64;49.68652;96567.86;;;;
2021/03/29 04:06:56;;;;;;;4.45;2.65;;;;;;;1.64;49.68652;96567.86;;;;
2021/03/29 04:07:59;;;;;;;4.45;2.65;;;;;;;1.64;49.68652;96567.86;;;;
2021/03/29 04:08:59;;;;;;;4.45;2.65;;;;;;;1.64;49.68652;96567.86;;;;
2021/03/29 04:10:06;;;;;;;4.45;2.65;;;;;;;1.64;49.68652;96567.86;;;;
2021/03/29 04:11:09;;;;;;;4.45;2.65;;;;;;;1.64;49.68652;96567.86;;;;
2021/03/29 04:12:11;;;;;;;4.45;2.65;;;;;;;1.64;49.68652;96567.86;;;;
2021/03/29 04:13:14;;;;;;;4.45;2.65;;;;;;;1.64;49.68652;96567.86;;;;
2021/03/29 04:14:16;;;;;;;4.45;2.65;;;;;;;1.64;49.68652;96567.86;;;;
2021/03/29 04:15:16;;;;;;;5.050001;2.4;;;;;;;1.67;49.80664;96574.2;;;;
2021/03/29 04:16:17;;;;;;;5.050001;2.4;;;;;;;1.67;49.80664;96574.2;;;;
2021/03/29 04:17:17;;;;;;;5.050001;2.4;;;;;;;1.67;49.80664;96574.2;;;;
2021/03/29 04:18:18;;;;;;;5.050001;2.4;;;;;;;1.67;49.80664;96574.2;;;;
2021/03/29 04:19:18;;;;;;;5.050001;2.4;;;;;;;1.67;49.80664;96574.2;;;;
2021/03/29 04:20:19;;;;;;;5.050001;2.4;;;;;;;1.67;49.80664;96574.2;;;;
2021/03/29 04:21:19;;;;;;;5.050001;2.4;;;;;;;1.67;49.80664;96574.2;;;;
2021/03/29 04:22:20;;;;;;;5.050001;2.4;;;;;;;1.67;49.80664;96574.2;;;;
2021/03/29 04:23:22;;;;;;;5.050001;2.4;;;;;;;1.67;49.80664;96574.2;;;;
2021/03/29 04:24:23;;;;;;;5.050001;2.4;;;;;;;1.67;49.80664;96574.2;;;;
2021/03/29 04:25:24;;;;;;;3.45;2.45;;;;;;;1.79;50.01074;96581.92;;;;
2021/03/29 04:26:24;;;;;;;3.45;2.45;;;;;;;1.79;50.01074;96581.92;;;;
2021/03/29 04:27:25;;;;;;;3.45;2.45;;;;;;;1.79;50.01074;96581.92;;;;
2021/03/29 04:28:26;;;;;;;3.45;2.45;;;;;;;1.79;50.01074;96581.92;;;;
2021/03/29 04:29:26;;;;;;;3.45;2.45;;;;;;;1.79;50.01074;96581.92;;;;
2021/03/29 04:30:27;;;;;;;3.45;2.45;;;;;;;1.79;50.01074;96581.92;;;;
2021/03/29 04:31:28;;;;;;;3.45;2.45;;;;;;;1.79;50.01074;96581.92;;;;
2021/03/29 04:32:28;;;;;;;3.45;2.45;;;;;;;1.79;50.01074;96581.92;;;;
2021/03/29 04:33:29;;;;;;;3.45;2.45;;;;;;;1.79;50.01074;96581.92;;;;
2021/03/29 04:34:29;;;;;;;3.45;2.45;;;;;;;1.79;50.01074;96581.92;;;;
2021/03/29 04:35:31;;;;;;;3.45;2.45;;;;;;;1.79;50.01074;96581.92;;;;
2021/03/29 04:36:31;;;;;;;3.05;2.299999;;;;;;;1.83;49.96094;96582.45;;;;
2021/03/29 04:37:32;;;;;;;3.05;2.299999;;;;;;;1.83;49.96094;96582.45;;;;
2021/03/29 04:38:32;;;;;;;3.05;2.299999;;;;;;;1.83;49.96094;96582.45;;;;
2021/03/29 04:39:33;;;;;;;3.05;2.299999;;;;;;;1.83;49.96094;96582.45;;;;
2021/03/29 04:40:34;;;;;;;3.05;2.299999;;;;;;;1.83;49.96094;96582.45;;;;
2021/03/29 04:41:34;;;;;;;3.05;2.299999;;;;;;;1.83;49.96094;96582.45;;;;
2021/03/29 04:42:35;;;;;;;3.05;2.299999;;;;;;;1.83;49.96094;96582.45;;;;
2021/03/29 04:43:35;;;;;;;3.05;2.299999;;;;;;;1.83;49.96094;96582.45;;;;
2021/03/29 04:44:36;;;;;;;3.05;2.299999;;;;;;;1.83;49.96094;96582.45;;;;
2021/03/29 04:45:37;;;;;;;3.05;2.299999;;;;;;;1.83;49.96094;96582.45;;;;
2021/03/29 04:46:37;;;;;;;4.3;2.4;;;;;;;1.77;50.14551;96598.53;;;;
2021/03/29 04:47:38;;;;;;;4.3;2.4;;;;;;;1.77;50.14551;96598.53;;;;
2021/03/29 04:48:39;;;;;;;4.3;2.4;;;;;;;1.77;50.14551;96598.53;;;;
2021/03/29 04:49:41;;;;;;;4.3;2.4;;;;;;;1.77;50.14551;96598.53;;;;
2021/03/29 04:50:41;;;;;;;4.3;2.4;;;;;;;1.77;50.14551;96598.53;;;;
2021/03/29 04:51:42;;;;;;;4.3;2.4;;;;;;;1.77;50.14551;96598.53;;;;
2021/03/29 04:52:42;;;;;;;4.3;2.4;;;;;;;1.77;50.14551;96598.53;;;;
2021/03/29 04:53:44;;;;;;;4.3;2.4;;;;;;;1.77;50.14551;96598.53;;;;
2021/03/29 04:54:44;;;;;;;4.3;2.4;;;;;;;1.77;50.14551;96598.53;;;;
2021/03/29 04:55:45;;;;;;;4.3;2.4;;;;;;;1.77;50.14551;96598.53;;;;
2021/03/29 04:56:45;;;;;;;4.3;2.4;;;;;;;1.77;50.14551;96598.53;;;;
2021/03/29 04:57:46;;;;;;;3.3;2.35;;;;;;;1.74;50.32227;96607.26;;;;
2021/03/29 04:58:46;;;;;;;3.3;2.35;;;;;;;1.74;50.32227;96607.26;;;;
2021/03/29 04:59:47;;;;;;;3.3;2.35;;;;;;;1.74;50.32227;96607.26;;;;
2021/03/29 05:00:47;;;;;;;3.3;2.35;;;;;;;1.74;50.32227;96607.26;;;;
2021/03/29 05:01:48;;;;;;;3.3;2.35;;;;;;;1.74;50.32227;96607.26;;;;
2021/03/29 05:02:49;;;;;;;3.3;2.35;;;;;;;1.74;50.32227;96607.26;;;;
2021/03/29 05:03:49;;;;;;;3.3;2.35;;;;;;;1.74;50.32227;96607.26;;;;
2021/03/29 05:04:50;;;;;;;3.3;2.35;;;;;;;1.74;50.32227;96607.26;;;;
2021/03/29 05:05:50;;;;;;;3.3;2.35;;;;;;;1.74;50.32227;96607.26;;;;
2021/03/29 05:06:51;;;;;;;3.3;2.35;;;;;;;1.74;50.32227;96607.26;;;;
2021/03/29 05:07:51;;;;;;;3.25;2.2;;;;;;;1.73;50.50977;96617.13;;;;
2021/03/29 05:08:52;;;;;;;3.25;2.2;;;;;;;1.73;50.50977;96617.13;;;;
2021/03/29 05:09:53;;;;;;;3.25;2.2;;;;;;;1.73;50.50977;96617.13;;;;
2021/03/29 05:10:54;;;;;;;3.25;2.2;;;;;;;1.73;50.50977;96617.13;;;;
2021/03/29 05:11:54;;;;;;;3.25;2.2;;;;;;;1.73;50.50977;96617.13;;;;
2021/03/29 05:12:55;;;;;;;3.25;2.2;;;;;;;1.73;50.50977;96617.13;;;;
2021/03/29 05:13:55;;;;;;;3.25;2.2;;;;;;;1.73;50.50977;96617.13;;;;
2021/03/29 05:14:56;;;;;;;3.25;2.2;;;;;;;1.73;50.50977;96617.13;;;;
2021/03/29 05:15:56;;;;;;;3.25;2.2;;;;;;;1.73;50.50977;96617.13;;;;
2021/03/29 05:16:57;;;;;;;3.25;2.2;;;;;;;1.73;50.50977;96617.13;;;;
2021/03/29 05:17:57;;;;;;;3.25;2.2;;;;;;;1.73;50.50977;96617.13;;;;
2021/03/29 05:18:58;;;;;;;2.8;2.15;;;;;;;1.77;50.65137;96618.98;;;;
2021/03/29 05:19:59;;;;;;;2.8;2.15;;;;;;;1.77;50.65137;96618.98;;;;
2021/03/29 05:21:00;;;;;;;2.8;2.15;;;;;;;1.77;50.65137;96618.98;;;;
2021/03/29 05:22:00;;;;;;;2.8;2.15;;;;;;;1.77;50.65137;96618.98;;;;
2021/03/29 05:23:03;;;;;;;2.8;2.15;;;;;;;1.77;50.65137;96618.98;;;;
2021/03/29 05:24:03;;;;;;;2.8;2.15;;;;;;;1.77;50.65137;96618.98;;;;
2021/03/29 05:25:06;;;;;;;2.8;2.15;;;;;;;1.77;50.65137;96618.98;;;;
2021/03/29 05:26:07;;;;;;;2.8;2.15;;;;;;;1.77;50.65137;96618.98;;;;
2021/03/29 05:27:07;;;;;;;2.8;2.15;;;;;;;1.77;50.65137;96618.98;;;;
2021/03/29 05:28:08;;;;;;;2.8;2.15;;;;;;;1.77;50.65137;96618.98;;;;
2021/03/29 05:29:09;;;;;;;4.1;2.4;;;;;;;1.93;50.48145;96634.23;;;;
2021/03/29 05:30:09;;;;;;;4.1;2.4;;;;;;;1.93;50.48145;96634.23;;;;
2021/03/29 05:31:10;;;;;;;4.1;2.4;;;;;;;1.93;50.48145;96634.23;;;;
2021/03/29 05:32:11;;;;;;;4.1;2.4;;;;;;;1.93;50.48145;96634.23;;;;
2021/03/29 05:33:14;;;;;;;4.1;2.4;;;;;;;1.93;50.48145;96634.23;;;;
2021/03/29 05:34:15;;;;;;;4.1;2.4;;;;;;;1.93;50.48145;96634.23;;;;
2021/03/29 05:35:15;;;;;;;4.1;2.4;;;;;;;1.93;50.48145;96634.23;;;;
2021/03/29 05:36:16;;;;;;;4.1;2.4;;;;;;;1.93;50.48145;96634.23;;;;
2021/03/29 05:37:17;;;;;;;4.1;2.4;;;;;;;1.93;50.48145;96634.23;;;;
2021/03/29 05:38:19;;;;;;;4.1;2.4;;;;;;;1.93;50.48145;96634.23;;;;
2021/03/29 05:39:19;;;;;;;4.1;2.4;;;;;;;1.93;50.48145;96634.23;;;;
2021/03/29 05:40:20;;;;;;;4.649999;2.05;;;;;;;2.13;50.4834;96643.3;;;;
2021/03/29 05:41:20;;;;;;;4.649999;2.05;;;;;;;2.13;50.4834;96643.3;;;;
2021/03/29 05:42:21;;;;;;;4.649999;2.05;;;;;;;2.13;50.4834;96643.3;;;;
2021/03/29 05:43:23;;;;;;;4.649999;2.05;;;;;;;2.13;50.4834;96643.3;;;;
2021/03/29 05:44:25;;;;;;;4.649999;2.05;;;;;;;2.13;50.4834;96643.3;;;;
2021/03/29 05:45:25;;;;;;;4.649999;2.05;;;;;;;2.13;50.4834;96643.3;;;;
2021/03/29 05:46:30;;;;;;;4.649999;2.05;;;;;;;2.13;50.4834;96643.3;;;;
2021/03/29 05:47:31;;;;;;;4.649999;2.05;;;;;;;2.13;50.4834;96643.3;;;;
2021/03/29 05:48:32;;;;;;;4.649999;2.05;;;;;;;2.13;50.4834;96643.3;;;;
2021/03/29 05:49:32;;;;;;;4.649999;2.05;;;;;;;2.13;50.4834;96643.3;;;;
2021/03/29 05:50:34;;;;;;;3.5;2.2;;;;;;;2.47;50.45996;96643.02;;;;
2021/03/29 05:51:34;;;;;;;3.5;2.2;;;;;;;2.47;50.45996;96643.02;;;;
2021/03/29 05:52:36;;;;;;;3.5;2.2;;;;;;;2.47;50.45996;96643.02;;;;
2021/03/29 05:53:37;;;;;;;3.5;2.2;;;;;;;2.47;50.45996;96643.02;;;;
2021/03/29 05:54:39;;;;;;;3.5;2.2;;;;;;;2.47;50.45996;96643.02;;;;
2021/03/29 05:55:42;;;;;;;3.5;2.2;;;;;;;2.47;50.45996;96643.02;;;;